Time;durP1;ratioP1;P1;durP2;ratioP2;P2;SDS_P1;SDS_P2;PMS_P1;PMS_P2;Temp;Humidity;BMP_temperature;BMP_pressure;BME280_temperature;BME280_humidity;BME280_pressure;Samples;Min_cycle;Max_cycle;Signal;HPM_P1;HPM_P2
2022/09/03 00:04:56;;;;;;;0.80;0.80;;;27.80;43.90;;;;;;10470292;28;20119;-35
2022/09/03 00:10:03;;;;;;;2.75;1.20;;;27.80;43.90;;;;;;10467786;28;20048;-35
2022/09/03 00:15:10;;;;;;;1.70;1.15;;;27.80;44.00;;;;;;10493619;28;20548;-40
2022/09/03 00:20:17;;;;;;;2.42;0.80;;;27.70;44.00;;;;;;10481686;28;20078;-35
2022/09/03 00:25:26;;;;;;;1.35;1.00;;;27.70;44.00;;;;;;10485646;28;20053;-33
2022/09/03 00:30:31;;;;;;;1.85;1.20;;;27.70;44.10;;;;;;10482786;28;20432;-34
2022/09/03 00:35:37;;;;;;;2.28;1.13;;;27.60;44.10;;;;;;10480242;28;20102;-35
2022/09/03 00:40:54;;;;;;;1.27;1.00;;;27.60;44.10;;;;;;10487533;28;20056;-36
2022/09/03 00:46:06;;;;;;;2.00;1.02;;;27.60;44.20;;;;;;10493789;28;20054;-35
2022/09/03 00:51:18;;;;;;;1.30;1.00;;;27.50;44.10;;;;;;10485288;28;20044;-35
2022/09/03 00:56:27;;;;;;;4.82;1.30;;;27.50;44.20;;;;;;10488120;28;20052;-33
2022/09/03 01:01:40;;;;;;;2.40;1.10;;;27.50;44.20;;;;;;10488510;28;20090;-34
2022/09/03 01:06:48;;;;;;;2.63;1.27;;;27.40;44.20;;;;;;10480387;28;20056;-32
2022/09/03 01:11:59;;;;;;;2.60;1.10;;;27.40;44.20;;;;;;10486425;28;20071;-34
2022/09/03 01:17:09;;;;;;;2.67;1.40;;;27.40;44.30;;;;;;10501330;28;20051;-35
2022/09/03 01:22:30;;;;;;;1.10;0.90;;;27.40;44.40;;;;;;10488268;28;20486;-34
2022/09/03 01:27:42;;;;;;;3.10;1.40;;;27.40;44.30;;;;;;10490484;28;20057;-35
2022/09/03 01:32:51;;;;;;;3.17;1.13;;;27.30;44.30;;;;;;10479271;28;20052;-34
2022/09/03 01:38:05;;;;;;;1.67;1.20;;;27.30;44.30;;;;;;10490263;28;20056;-35
2022/09/03 01:43:34;;;;;;;1.48;1.13;;;27.20;44.30;;;;;;10496507;28;20477;-34
2022/09/03 01:48:43;;;;;;;2.05;1.13;;;27.20;44.30;;;;;;10476135;28;20131;-35
2022/09/03 01:54:00;;;;;;;1.55;0.90;;;27.20;44.30;;;;;;10487853;28;20151;-34
2022/09/03 01:59:07;;;;;;;1.33;1.20;;;27.20;44.40;;;;;;10481156;28;20092;-33
2022/09/03 02:04:22;;;;;;;2.85;1.17;;;27.10;44.30;;;;;;10478413;28;20053;-34
2022/09/03 02:09:24;;;;;;;2.15;1.25;;;27.10;44.30;;;;;;10490680;28;20048;-34
2022/09/03 02:14:27;;;;;;;3.72;1.20;;;27.10;44.40;;;;;;10503660;28;20041;-33
2022/09/03 02:19:31;;;;;;;2.75;1.20;;;26.70;44.20;;;;;;10487623;28;20431;-35
2022/09/03 02:24:33;;;;;;;3.80;1.20;;;27.00;44.40;;;;;;10487238;28;20041;-35
2022/09/03 02:29:34;;;;;;;2.58;1.10;;;27.00;44.50;;;;;;10478760;28;20084;-34
2022/09/03 02:34:38;;;;;;;1.70;1.10;;;26.90;44.40;;;;;;10473937;28;20068;-34
2022/09/03 02:39:40;;;;;;;1.40;1.15;;;26.90;44.40;;;;;;10507949;28;20143;-34
2022/09/03 02:44:44;;;;;;;2.33;1.42;;;26.90;44.50;;;;;;10484695;28;20052;-34
2022/09/03 02:49:48;;;;;;;1.55;1.00;;;27.20;44.60;;;;;;10483069;28;20068;-35
2022/09/03 02:54:50;;;;;;;2.97;1.25;;;26.90;44.50;;;;;;10493395;28;20076;-34
2022/09/03 02:59:51;;;;;;;1.55;0.90;;;26.80;44.50;;;;;;10472847;28;20056;-35
2022/09/03 03:04:55;;;;;;;2.03;0.90;;;26.80;44.50;;;;;;10492982;28;20049;-34
2022/09/03 03:09:57;;;;;;;1.63;1.30;;;26.80;44.50;;;;;;10495282;28;20052;-34
2022/09/03 03:14:59;;;;;;;3.55;1.48;;;26.80;44.50;;;;;;10498466;28;20052;-35
2022/09/03 03:20:02;;;;;;;1.65;1.02;;;26.70;44.50;;;;;;10488560;28;20537;-35
2022/09/03 03:25:05;;;;;;;2.55;1.20;;;26.70;44.60;;;;;;10499456;28;20134;-35
2022/09/03 03:30:08;;;;;;;1.38;1.02;;;26.70;44.60;;;;;;10488281;28;20060;-35
2022/09/03 03:35:12;;;;;;;1.20;0.98;;;26.70;44.60;;;;;;10478439;28;20119;-35
2022/09/03 03:40:14;;;;;;;2.22;1.10;;;26.60;44.60;;;;;;10480551;28;20052;-35
2022/09/03 03:45:16;;;;;;;2.03;0.82;;;26.60;44.60;;;;;;10490515;28;20052;-36
2022/09/03 03:50:19;;;;;;;2.58;1.10;;;26.60;44.60;;;;;;10485234;28;20578;-34
2022/09/03 03:55:21;;;;;;;2.80;1.10;;;27.50;45.40;;;;;;10481815;28;20131;-34
2022/09/03 04:00:23;;;;;;;4.78;1.27;;;26.50;44.60;;;;;;10487522;28;20064;-34
2022/09/03 04:05:26;;;;;;;2.10;0.82;;;26.50;44.60;;;;;;10492600;28;20238;-35
2022/09/03 04:10:28;;;;;;;1.73;1.00;;;26.50;44.60;;;;;;10484252;28;20048;-35
2022/09/03 04:15:30;;;;;;;1.45;1.02;;;26.50;44.70;;;;;;10481864;28;20056;-34
2022/09/03 04:20:35;;;;;;;1.70;1.30;;;26.50;44.70;;;;;;10479595;28;20057;-35
2022/09/03 04:25:37;;;;;;;2.00;1.10;;;26.10;44.40;;;;;;10474067;28;20049;-35
2022/09/03 04:30:39;;;;;;;1.10;0.93;;;26.50;44.70;;;;;;10471509;28;20143;-34
2022/09/03 04:35:42;;;;;;;7.50;2.08;;;26.40;44.70;;;;;;10495552;28;20131;-36
2022/09/03 04:40:51;;;;;;;0.90;0.88;;;26.40;44.70;;;;;;10473213;28;20112;-36
2022/09/03 04:45:56;;;;;;;2.63;1.10;;;26.40;44.70;;;;;;10483246;28;20773;-36
2022/09/03 04:51:05;;;;;;;2.00;0.90;;;26.40;44.70;;;;;;10494022;28;20143;-34
2022/09/03 04:56:13;;;;;;;1.17;0.98;;;26.40;44.70;;;;;;10482411;28;20048;-34
2022/09/03 05:01:18;;;;;;;2.17;1.30;;;26.30;44.70;;;;;;10489133;28;20467;-30
2022/09/03 05:06:21;;;;;;;1.52;1.00;;;26.30;44.70;;;;;;10485398;28;20475;-34
2022/09/03 05:11:24;;;;;;;2.30;1.20;;;26.30;44.70;;;;;;10486921;28;20112;-35
2022/09/03 05:16:29;;;;;;;0.95;0.77;;;26.20;44.60;;;;;;10485996;28;20156;-35
2022/09/03 05:21:32;;;;;;;1.40;1.00;;;26.30;44.60;;;;;;10486830;28;20044;-36
2022/09/03 05:26:37;;;;;;;1.83;1.20;;;26.20;44.70;;;;;;10483233;28;20045;-35
2022/09/03 05:31:39;;;;;;;1.25;1.15;;;26.20;44.90;;;;;;10472673;28;20503;-35
2022/09/03 05:36:43;;;;;;;1.50;1.20;;;26.20;44.60;;;;;;10475300;28;20564;-35
2022/09/03 05:41:44;;;;;;;1.52;1.20;;;26.30;44.50;;;;;;10468579;28;20456;-34
2022/09/03 05:46:46;;;;;;;2.72;1.20;;;26.60;44.60;;;;;;10472194;28;20120;-35
2022/09/03 05:51:49;;;;;;;2.83;1.40;;;26.40;44.30;;;;;;10477102;28;20143;-35
2022/09/03 05:56:51;;;;;;;2.83;1.52;;;26.30;44.10;;;;;;10477410;28;20049;-35
2022/09/03 06:01:53;;;;;;;5.78;1.88;;;26.30;44.10;;;;;;10468365;28;20126;-36
2022/09/03 06:06:56;;;;;;;4.32;1.63;;;26.30;44.60;;;;;;10490265;28;20090;-35
2022/09/03 06:11:58;;;;;;;4.15;1.20;;;26.30;43.90;;;;;;10477550;28;20080;-35
2022/09/03 06:17:00;;;;;;;2.47;1.20;;;26.30;43.80;;;;;;10468585;28;20049;-34
2022/09/03 06:22:03;;;;;;;3.15;1.27;;;26.30;43.70;;;;;;10472047;28;20087;-37
2022/09/03 06:27:06;;;;;;;2.58;1.50;;;26.30;43.70;;;;;;10471517;28;20545;-32
2022/09/03 06:32:08;;;;;;;3.22;1.48;;;26.30;43.50;;;;;;10481463;28;20051;-36
2022/09/03 06:37:11;;;;;;;4.10;1.27;;;26.30;43.50;;;;;;10477603;28;20055;-34
2022/09/03 06:42:13;;;;;;;1.75;1.00;;;26.30;43.50;;;;;;10473332;28;20059;-35
2022/09/03 06:47:15;;;;;;;3.10;1.45;;;26.30;43.50;;;;;;10475131;28;20052;-35
2022/09/03 06:52:18;;;;;;;1.60;1.15;;;26.30;43.50;;;;;;10476021;28;20076;-35
2022/09/03 06:57:20;;;;;;;3.53;1.35;;;26.30;43.40;;;;;;10471032;28;20051;-36
2022/09/03 07:02:22;;;;;;;4.40;1.30;;;26.30;43.40;;;;;;10474154;28;20163;-36
2022/09/03 07:07:25;;;;;;;5.53;1.80;;;26.30;43.40;;;;;;10480227;28;20041;-35
2022/09/03 07:12:27;;;;;;;4.80;1.88;;;26.30;43.40;;;;;;10471020;28;20070;-34
2022/09/03 07:17:29;;;;;;;5.05;2.00;;;26.60;43.70;;;;;;10469839;28;20549;-35
2022/09/03 07:22:32;;;;;;;8.13;1.85;;;26.30;43.70;;;;;;10468186;28;20041;-35
2022/09/03 07:27:35;;;;;;;6.72;1.80;;;26.30;43.70;;;;;;10465916;28;20076;-35
2022/09/03 07:32:39;;;;;;;4.57;1.23;;;26.30;43.70;;;;;;10478633;28;20126;-33
2022/09/03 07:37:43;;;;;;;3.30;1.58;;;26.40;43.70;;;;;;10479444;28;20051;-36
2022/09/03 07:42:47;;;;;;;4.05;1.38;;;26.30;43.60;;;;;;10472245;28;20129;-34
2022/09/03 07:47:49;;;;;;;3.35;1.52;;;26.40;43.70;;;;;;10473950;28;20056;-33
2022/09/03 07:52:58;;;;;;;4.63;1.58;;;26.40;43.80;;;;;;10475118;28;20744;-32
2022/09/03 07:58:00;;;;;;;4.93;1.65;;;26.50;43.80;;;;;;10470126;28;20382;-34
2022/09/03 08:03:05;;;;;;;4.57;1.38;;;26.40;43.70;;;;;;10467569;28;20040;-35
2022/09/03 08:08:08;;;;;;;2.05;1.23;;;26.50;43.70;;;;;;10481508;28;20044;-35
2022/09/03 08:13:10;;;;;;;3.72;1.58;;;26.50;43.60;;;;;;10478860;28;20460;-34
2022/09/03 08:18:12;;;;;;;3.10;1.42;;;26.50;43.60;;;;;;10477101;28;20071;-34
2022/09/03 08:23:15;;;;;;;9.30;1.60;;;26.50;43.60;;;;;;10466327;28;20061;-32
2022/09/03 08:28:17;;;;;;;4.57;1.60;;;26.50;43.50;;;;;;10483024;28;20051;-34
2022/09/03 08:33:35;;;;;;;2.97;1.60;;;26.70;43.80;;;;;;10490712;28;20131;-33
2022/09/03 08:38:39;;;;;;;4.28;1.13;;;27.10;44.20;;;;;;10483805;28;20044;-34
2022/09/03 08:44:13;;;;;;;4.70;1.50;;;26.60;44.10;;;;;;10468562;28;20051;-35
2022/09/03 08:49:20;;;;;;;4.63;2.20;;;26.60;44.20;;;;;;10482622;28;20137;-34
2022/09/03 08:54:29;;;;;;;3.85;1.80;;;26.70;44.10;;;;;;10468504;28;20488;-35
2022/09/03 08:59:32;;;;;;;4.97;1.50;;;26.60;44.30;;;;;;10470802;28;20051;-36
2022/09/03 09:04:47;;;;;;;5.35;1.52;;;26.80;44.30;;;;;;10471188;28;20051;-34
2022/09/03 09:09:58;;;;;;;5.18;1.60;;;26.90;44.80;;;;;;10462062;28;20143;-34
2022/09/03 09:15:13;;;;;;;2.30;1.42;;;26.90;44.10;;;;;;10469957;28;20128;-34
2022/09/03 09:20:23;;;;;;;6.63;1.80;;;26.90;44.10;;;;;;10475301;28;20068;-34
2022/09/03 09:25:26;;;;;;;4.82;1.73;;;27.00;44.00;;;;;;10484884;28;20451;-36
2022/09/03 09:30:30;;;;;;;2.67;1.70;;;27.00;44.00;;;;;;10478580;28;20049;-34
2022/09/03 09:35:32;;;;;;;4.53;1.65;;;27.30;43.50;;;;;;10483542;28;20041;-35
2022/09/03 09:40:37;;;;;;;3.83;2.03;;;27.60;43.30;;;;;;10490936;28;20599;-35
2022/09/03 09:45:40;;;;;;;2.22;1.40;;;27.30;43.70;;;;;;10488002;28;20154;-36
2022/09/03 09:50:42;;;;;;;4.15;1.55;;;27.50;43.60;;;;;;10489305;28;20052;-37
2022/09/03 09:55:54;;;;;;;2.38;1.50;;;28.10;43.70;;;;;;10506506;28;20155;-36
2022/09/03 10:01:12;;;;;;;4.47;1.65;;;27.40;43.80;;;;;;10482721;28;20090;-35
2022/09/03 10:12:03;;;;;;;4.35;1.63;;;27.50;43.50;;;;;;10392871;28;20518;-36
2022/09/03 10:17:11;;;;;;;3.40;1.50;;;27.30;44.10;;;;;;10468456;28;20056;-35
2022/09/03 10:22:19;;;;;;;3.28;1.55;;;27.20;44.00;;;;;;10483931;28;20556;-35
2022/09/03 10:27:22;;;;;;;4.60;1.45;;;27.70;43.60;;;;;;10481470;28;20147;-35
2022/09/03 10:32:38;;;;;;;3.63;1.50;;;27.20;43.30;;;;;;10489982;28;20632;-35
2022/09/03 10:37:44;;;;;;;5.43;1.23;;;27.60;43.80;;;;;;10482752;28;20076;-34
2022/09/03 10:42:57;;;;;;;2.08;1.30;;;28.30;43.20;;;;;;10480144;28;20541;-35
2022/09/03 10:48:26;;;;;;;3.55;1.48;;;28.10;43.10;;;;;;10476765;28;20463;-36
2022/09/03 10:53:58;;;;;;;2.63;1.40;;;28.20;43.10;;;;;;10489189;28;20508;-34
2022/09/03 10:59:17;;;;;;;2.55;1.80;;;28.20;43.50;;;;;;10481952;28;20076;-34
2022/09/03 11:04:28;;;;;;;3.55;1.48;;;28.30;43.20;;;;;;10482181;28;20473;-34
2022/09/03 11:09:33;;;;;;;;;;;28.30;43.10;;;;;;10478634;28;20683;-35
2022/09/03 11:14:42;;;;;;;2.92;1.17;;;28.60;42.80;;;;;;10478024;28;19935;-34
2022/09/03 11:19:50;;;;;;;1.80;1.50;;;28.80;42.90;;;;;;10471144;28;20507;-35
2022/09/03 11:24:57;;;;;;;3.53;1.80;;;28.30;43.30;;;;;;10467832;28;20055;-34
2022/09/03 11:30:05;;;;;;;2.25;1.30;;;28.70;43.50;;;;;;10467271;28;20049;-35
2022/09/03 11:35:14;;;;;;;1.80;1.27;;;28.30;43.50;;;;;;10458229;28;20106;-33
2022/09/03 11:40:20;;;;;;;2.38;1.48;;;28.40;43.80;;;;;;10472834;28;20037;-33
2022/09/03 11:45:36;;;;;;;2.97;1.42;;;28.30;43.30;;;;;;10484212;28;20056;-34
2022/09/03 11:50:38;;;;;;;1.75;1.27;;;29.10;42.40;;;;;;10485877;28;20142;-34
2022/09/03 11:55:54;;;;;;;1.92;1.30;;;29.10;42.90;;;;;;10476726;28;20051;-34
2022/09/03 12:01:00;;;;;;;1.58;1.35;;;29.20;42.20;;;;;;10478641;28;20054;-34
2022/09/03 12:06:30;;;;;;;3.30;1.23;;;29.10;42.60;;;;;;10482383;28;20044;-34
2022/09/03 12:11:43;;;;;;;3.90;1.55;;;29.20;42.40;;;;;;10478362;28;20098;-34
2022/09/03 12:17:00;;;;;;;2.33;1.20;;;29.40;42.20;;;;;;10470086;28;20047;-34
2022/09/03 12:22:03;;;;;;;1.60;1.10;;;29.10;42.30;;;;;;10464644;28;20519;-34
2022/09/03 12:27:06;;;;;;;2.00;1.20;;;29.90;41.50;;;;;;10465501;28;20521;-33
2022/09/03 12:32:13;;;;;;;2.28;1.20;;;29.50;40.30;;;;;;10456405;28;20715;-36
2022/09/03 12:37:22;;;;;;;2.67;1.45;;;29.80;41.70;;;;;;10465129;28;20503;-34
2022/09/03 12:42:27;;;;;;;4.10;1.80;;;29.80;41.70;;;;;;10484024;28;20055;-34
2022/09/03 12:47:30;;;;;;;1.42;1.20;;;30.40;40.60;;;;;;10489302;28;20056;-34
2022/09/03 12:52:36;;;;;;;2.55;1.23;;;30.60;39.80;;;;;;10479795;28;20080;-35
2022/09/03 12:57:42;;;;;;;4.82;1.17;;;30.00;41.50;;;;;;10483284;28;20820;-34
2022/09/03 13:02:52;;;;;;;1.50;1.23;;;31.20;39.00;;;;;;10474325;28;20045;-34
2022/09/03 13:07:59;;;;;;;1.00;0.90;;;31.10;39.80;;;;;;10470200;28;20114;-34
2022/09/03 13:13:02;;;;;;;1.58;1.13;;;31.80;39.00;;;;;;10491904;28;20135;-35
2022/09/03 13:18:24;;;;;;;2.10;1.00;;;31.90;38.60;;;;;;10489500;28;20517;-34
2022/09/03 13:23:37;;;;;;;6.72;1.40;;;31.50;40.20;;;;;;10468850;28;20128;-30
2022/09/03 13:28:57;;;;;;;4.25;1.35;;;32.40;38.00;;;;;;10492438;28;20831;-34
2022/09/03 13:34:06;;;;;;;8.85;1.88;;;32.30;37.00;;;;;;10486926;28;20147;-32
2022/09/03 13:39:20;;;;;;;2.05;0.90;;;32.70;35.40;;;;;;10485664;28;20045;-35
2022/09/03 13:44:31;;;;;;;2.25;1.50;;;33.00;35.90;;;;;;10497327;28;20160;-34
2022/09/03 13:55:06;;;;;;;5.50;1.20;;;34.10;33.90;;;;;;10480954;28;20045;-35
2022/09/03 14:00:11;;;;;;;2.47;0.85;;;34.70;33.90;;;;;;10491544;28;20098;-35
2022/09/03 14:05:23;;;;;;;4.07;1.50;;;34.20;38.50;;;;;;10487709;28;20044;-35
2022/09/03 14:10:35;;;;;;;2.00;0.95;;;34.70;33.70;;;;;;10481230;28;20079;-35
2022/09/03 14:15:43;;;;;;;3.95;1.30;;;34.90;34.50;;;;;;10490825;28;20131;-36
2022/09/03 14:20:54;;;;;;;5.13;1.40;;;35.60;33.10;;;;;;10492012;28;20056;-35
2022/09/03 14:25:59;;;;;;;5.05;1.55;;;35.80;34.30;;;;;;10471506;28;20047;-33
2022/09/03 14:31:10;;;;;;;6.47;1.17;;;36.00;32.30;;;;;;10483679;28;20051;-34
2022/09/03 14:36:23;;;;;;;3.60;1.50;;;36.10;36.30;;;;;;10486173;28;20055;-34
2022/09/03 14:41:49;;;;;;;1.85;1.05;;;35.90;33.60;;;;;;10488386;28;20036;-34
2022/09/03 14:47:03;;;;;;;1.00;0.80;;;36.00;38.80;;;;;;10486898;28;20400;-36
2022/09/03 14:52:22;;;;;;;3.70;1.00;;;37.30;35.70;;;;;;10480040;28;20457;-34
2022/09/03 14:57:45;;;;;;;3.13;0.83;;;36.80;32.00;;;;;;10478790;28;20496;-34
2022/09/03 15:03:24;;;;;;;3.63;0.82;;;38.10;34.90;;;;;;10480159;28;20076;-35
2022/09/03 15:08:49;;;;;;;4.03;1.33;;;38.00;33.60;;;;;;10475245;28;20040;-34
2022/09/03 15:13:54;;;;;;;3.03;0.82;;;38.20;31.90;;;;;;10480098;28;20044;-35
2022/09/03 15:19:09;;;;;;;3.08;0.98;;;37.80;32.30;;;;;;10466254;28;20045;-35
2022/09/03 15:24:27;;;;;;;1.67;1.40;;;39.20;31.80;;;;;;10484103;28;20048;-34
2022/09/03 15:29:42;;;;;;;9.10;2.17;;;38.90;33.10;;;;;;10487518;28;20084;-37
2022/09/03 15:35:02;;;;;;;6.53;1.70;;;39.10;30.50;;;;;;10484125;28;20151;-32
2022/09/03 15:40:12;;;;;;;1.45;1.10;;;39.10;35.30;;;;;;10468472;28;20068;-35
2022/09/03 15:45:25;;;;;;;3.70;1.00;;;40.00;33.70;;;;;;10463880;28;20545;-31
2022/09/03 15:50:34;;;;;;;11.73;2.00;;;39.40;34.90;;;;;;10463273;28;20112;-31
2022/09/03 15:55:39;;;;;;;1.85;0.85;;;39.40;30.90;;;;;;10476475;28;20045;-34
2022/09/03 16:00:55;;;;;;;1.27;0.70;;;40.00;34.70;;;;;;10469213;28;20106;-35
2022/09/03 16:06:02;;;;;;;3.80;1.23;;;39.00;36.70;;;;;;10484677;28;20048;-39
2022/09/03 16:11:10;;;;;;;6.00;1.10;;;38.80;33.30;;;;;;10464257;28;20501;-36
2022/09/03 16:16:20;;;;;;;2.10;0.98;;;38.90;38.60;;;;;;10475115;28;20431;-35
2022/09/03 16:21:28;;;;;;;2.03;0.80;;;37.80;39.90;;;;;;10477991;28;20127;-35
2022/09/03 16:26:36;;;;;;;1.48;1.10;;;37.70;40.20;;;;;;10474377;28;20106;-35
2022/09/03 16:31:51;;;;;;;6.47;1.90;;;38.80;36.60;;;;;;10472307;28;20082;-35
2022/09/03 16:37:07;;;;;;;4.60;1.92;;;38.20;38.60;;;;;;10470067;28;20056;-35
2022/09/03 16:42:18;;;;;;;1.40;0.95;;;38.50;37.30;;;;;;10483076;28;20135;-34
2022/09/03 16:47:32;;;;;;;4.47;1.48;;;38.70;33.40;;;;;;10466148;28;20052;-33
2022/09/03 16:52:47;;;;;;;1.10;1.00;;;38.50;39.20;;;;;;10484804;28;20048;-35
2022/09/03 16:58:09;;;;;;;3.88;1.10;;;38.60;37.90;;;;;;10482679;28;20093;-35
2022/09/03 17:03:24;;;;;;;4.03;1.02;;;38.80;39.30;;;;;;10479208;28;20057;-35
2022/09/03 17:08:39;;;;;;;3.30;2.13;;;38.70;40.30;;;;;;10493066;28;20451;-31
2022/09/03 17:14:02;;;;;;;5.60;1.80;;;39.00;35.70;;;;;;10478984;28;20254;-35
2022/09/03 17:19:14;;;;;;;3.88;1.38;;;38.60;40.50;;;;;;10487503;28;20641;-34
2022/09/03 17:24:36;;;;;;;2.30;1.23;;;38.50;37.30;;;;;;10487492;28;20106;-35
2022/09/03 17:30:00;;;;;;;4.32;1.17;;;36.80;41.70;;;;;;10468140;28;20040;-36
2022/09/03 17:35:11;;;;;;;2.25;0.88;;;36.60;46.20;;;;;;10484581;28;20043;-36
2022/09/03 17:40:26;;;;;;;5.47;1.75;;;36.00;46.70;;;;;;10475737;28;20135;-33
2022/09/03 17:45:40;;;;;;;2.28;1.58;;;33.90;46.70;;;;;;10469030;28;20076;-35
2022/09/03 17:50:50;;;;;;;1.85;1.30;;;34.20;50.70;;;;;;10477961;28;20070;-35
2022/09/03 17:56:02;;;;;;;1.55;1.20;;;34.30;50.60;;;;;;10470017;28;20044;-35
2022/09/03 18:01:14;;;;;;;2.17;1.27;;;34.60;51.80;;;;;;10482968;28;20150;-34
2022/09/03 18:06:26;;;;;;;2.30;1.20;;;33.90;46.80;;;;;;10497027;28;20453;-35
2022/09/03 18:11:34;;;;;;;1.45;1.10;;;34.00;49.60;;;;;;10487989;28;20053;-35
2022/09/03 18:16:42;;;;;;;2.03;1.27;;;34.00;49.00;;;;;;10488931;28;20079;-36
2022/09/03 20:11:18;;;;;;;3.85;1.38;;;31.60;47.70;;;;;;10485580;28;20044;-35
2022/09/03 20:16:24;;;;;;;2.20;1.48;;;31.60;47.90;;;;;;10475784;28;20049;-36
2022/09/03 20:21:33;;;;;;;3.80;1.60;;;31.50;47.70;;;;;;10469482;28;20076;-35
2022/09/03 20:26:46;;;;;;;5.50;1.75;;;31.40;47.80;;;;;;10475761;28;20072;-34
2022/09/03 20:31:55;;;;;;;7.55;2.03;;;31.60;48.00;;;;;;10486857;28;20143;-36
2022/09/03 20:37:11;;;;;;;8.80;2.00;;;31.10;47.80;;;;;;10487475;28;20507;-36
2022/09/03 20:42:30;;;;;;;10.95;2.13;;;31.10;47.90;;;;;;10489062;28;20148;-35
2022/09/03 20:47:47;;;;;;;5.80;2.60;;;31.00;48.00;;;;;;10486716;28;20052;-35
2022/09/03 20:52:59;;;;;;;8.02;2.83;;;30.90;48.00;;;;;;10474240;28;20080;-33
2022/09/03 20:58:10;;;;;;;11.43;2.63;;;30.90;48.20;;;;;;10464987;28;20102;-36
2022/09/03 21:03:18;;;;;;;6.25;2.28;;;30.90;48.10;;;;;;10492788;28;20146;-35
2022/09/03 21:08:38;;;;;;;5.75;2.60;;;30.90;48.20;;;;;;10481775;28;20470;-36
2022/09/03 21:13:47;;;;;;;12.07;2.50;;;30.80;48.30;;;;;;10465241;28;20067;-36
2022/09/03 21:18:58;;;;;;;7.68;2.53;;;30.80;48.40;;;;;;10481162;28;20139;-35
2022/09/03 21:24:05;;;;;;;4.00;2.45;;;30.70;48.40;;;;;;10478328;28;20052;-34
2022/09/03 21:29:17;;;;;;;4.93;2.92;;;30.70;48.40;;;;;;10498238;28;20122;-34
2022/09/03 21:34:24;;;;;;;4.97;2.83;;;30.60;48.50;;;;;;10489814;28;20136;-34
2022/09/03 21:39:30;;;;;;;7.13;2.50;;;30.50;48.50;;;;;;10492740;28;20131;-35
2022/09/03 21:44:55;;;;;;;6.10;2.88;;;30.40;48.70;;;;;;10481726;28;20152;-34
2022/09/03 21:50:05;;;;;;;5.45;3.05;;;30.40;48.60;;;;;;10483690;28;20143;-35
2022/09/03 21:55:21;;;;;;;7.43;3.10;;;30.40;48.70;;;;;;10493821;28;20131;-35
2022/09/03 22:00:31;;;;;;;7.47;2.90;;;30.30;48.60;;;;;;10490329;28;20401;-35
2022/09/03 22:05:44;;;;;;;7.32;3.00;;;30.20;48.70;;;;;;10504053;28;20074;-35
2022/09/03 22:10:55;;;;;;;3.97;2.70;;;30.20;48.70;;;;;;10491995;28;20082;-35
2022/09/03 22:16:05;;;;;;;6.15;2.78;;;30.10;48.70;;;;;;10484260;28;20044;-36
2022/09/03 22:21:17;;;;;;;3.72;2.60;;;30.10;48.70;;;;;;10481115;28;20128;-36
2022/09/03 22:26:25;;;;;;;5.40;2.42;;;30.10;48.80;;;;;;10476802;28;20492;-35
2022/09/03 22:31:35;;;;;;;4.05;2.42;;;30.00;48.80;;;;;;10490824;28;20044;-34
2022/09/03 22:36:41;;;;;;;4.65;2.58;;;28.80;48.00;;;;;;10483762;28;20375;-33
2022/09/03 22:42:09;;;;;;;3.65;2.65;;;30.00;48.80;;;;;;10486147;28;20493;-36
2022/09/03 22:47:19;;;;;;;6.13;2.92;;;29.80;48.80;;;;;;10492090;28;20153;-36
2022/09/03 22:52:31;;;;;;;4.65;2.80;;;29.80;48.80;;;;;;10485432;28;20052;-35
2022/09/03 22:57:40;;;;;;;4.82;3.35;;;29.80;48.90;;;;;;10484978;28;20040;-35
2022/09/03 23:02:45;;;;;;;4.57;2.92;;;29.70;48.90;;;;;;10484950;28;20055;-35
2022/09/03 23:07:53;;;;;;;4.35;2.83;;;29.70;48.90;;;;;;10488382;28;20036;-35
2022/09/03 23:13:06;;;;;;;4.10;2.97;;;29.70;49.00;;;;;;10485679;28;20080;-34
2022/09/03 23:18:14;;;;;;;6.50;2.78;;;29.60;49.00;;;;;;10483307;28;20151;-34
2022/09/03 23:23:19;;;;;;;3.17;2.70;;;30.90;49.90;;;;;;10479478;28;20048;-35
2022/09/03 23:28:26;;;;;;;4.03;2.58;;;29.50;49.00;;;;;;10486995;28;20577;-35
2022/09/03 23:33:29;;;;;;;5.00;3.45;;;29.50;49.00;;;;;;10488801;28;20848;-35
2022/09/03 23:38:40;;;;;;;6.10;2.70;;;29.50;49.10;;;;;;10475521;28;20076;-34
2022/09/03 23:44:10;;;;;;;4.68;2.50;;;29.40;49.10;;;;;;10478339;28;20538;-36
2022/09/03 23:49:28;;;;;;;3.60;2.58;;;29.30;49.10;;;;;;10491895;28;20095;-34
2022/09/03 23:54:37;;;;;;;4.00;2.47;;;29.70;49.40;;;;;;10489903;28;20174;-36
2022/09/03 23:59:55;;;;;;;4.38;2.78;;;29.30;49.20;;;;;;10484125;28;20137;-36
